Time;durP1;ratioP1;P1;durP2;ratioP2;P2;SDS_P1;SDS_P2;PMS_P1;PMS_P2;Temp;Humidity;BMP_temperature;BMP_pressure;BME280_temperature;BME280_humidity;BME280_pressure;Samples;Min_cycle;Max_cycle;Signal;HPM_P1;HPM_P2
2020/12/18 00:01:28;;;;;;;60.73;32.40;;;;;;;2.19;83.07;101870.91;1816593;78;21699;-70
2020/12/18 00:03:57;;;;;;;61.75;32.85;;;;;;;2.18;83.14;101866.64;1804401;78;21614;-70
2020/12/18 00:06:27;;;;;;;63.20;32.98;;;;;;;2.20;83.18;101862.00;1784344;78;21219;-71
2020/12/18 00:08:55;;;;;;;60.95;32.88;;;;;;;2.20;83.17;101862.00;1782116;80;21178;-69
2020/12/18 00:11:25;;;;;;;64.55;32.33;;;;;;;2.16;83.17;101863.84;1783532;78;21151;-70
2020/12/18 00:13:53;;;;;;;57.40;30.97;;;;;;;2.17;83.25;101862.84;1791610;79;22275;-71
2020/12/18 00:16:22;;;;;;;57.85;31.33;;;;;;;2.20;83.26;101862.50;1770939;79;21216;-70
2020/12/18 00:18:50;;;;;;;61.00;32.78;;;;;;;2.25;83.25;101857.55;1789917;79;21156;-70
2020/12/18 00:21:19;;;;;;;55.23;31.15;;;;;;;2.27;83.27;101862.14;1796879;79;21187;-69
2020/12/18 00:23:47;;;;;;;55.83;31.20;;;;;;;2.31;83.25;101852.92;1780977;79;21578;-70
2020/12/18 00:26:16;;;;;;;58.08;30.32;;;;;;;2.29;83.17;101858.86;1782775;80;21281;-71
2020/12/18 00:28:45;;;;;;;58.70;30.97;;;;;;;2.23;83.11;101859.03;1804319;78;20982;-70
2020/12/18 00:31:14;;;;;;;51.83;29.25;;;;;;;2.16;83.07;101859.89;1816535;78;21104;-71
2020/12/18 00:33:42;;;;;;;52.23;29.80;;;;;;;2.13;83.13;101848.36;1788420;79;21464;-70
2020/12/18 00:36:11;;;;;;;55.50;28.70;;;;;;;2.15;83.16;101851.16;1803764;78;21136;-71
2020/12/18 00:38:40;;;;;;;57.35;30.85;;;;;;;2.16;83.20;101851.48;1816317;78;21675;-71
2020/12/18 00:41:08;;;;;;;54.98;30.35;;;;;;;2.11;83.19;101852.50;1779753;78;21201;-70
2020/12/18 00:43:36;;;;;;;59.75;31.62;;;;;;;2.09;83.24;101850.52;1769307;79;21228;-70
2020/12/18 00:46:06;;;;;;;54.25;29.15;;;;;;;2.09;83.29;101844.74;1797998;79;21187;-70
2020/12/18 00:48:34;;;;;;;55.70;31.48;;;;;;;2.15;83.31;101848.52;1778814;78;21276;-70
2020/12/18 00:51:04;;;;;;;54.48;29.98;;;;;;;2.17;83.31;101841.25;1774004;80;21275;-70
2020/12/18 00:53:34;;;;;;;55.70;29.00;;;;;;;2.18;83.30;101842.09;1803508;78;21168;-71
2020/12/18 00:56:09;;;;;;;50.05;29.30;;;;;;;2.18;83.29;101843.42;1754661;80;21139;-70
2020/12/18 00:58:37;;;;;;;53.90;28.35;;;;;;;2.18;83.28;101844.23;1769078;80;21175;-70
2020/12/18 01:01:06;;;;;;;48.98;26.82;;;;;;;2.22;83.30;101849.98;1762787;80;21601;-69
2020/12/18 01:03:35;;;;;;;48.65;27.35;;;;;;;2.22;83.27;101841.58;1763631;79;21363;-70
2020/12/18 01:06:09;;;;;;;50.75;26.65;;;;;;;2.23;83.28;101841.08;1786411;80;21171;-71
2020/12/18 01:08:38;;;;;;;51.10;26.57;;;;;;;2.26;83.29;101835.47;1806312;79;21189;-70
2020/12/18 01:11:06;;;;;;;48.80;27.98;;;;;;;2.27;83.29;101835.31;1776184;80;21214;-70
2020/12/18 01:13:35;;;;;;;42.65;23.05;;;;;;;2.30;83.24;101834.97;1820081;78;21120;-70
2020/12/18 01:16:04;;;;;;;46.28;24.80;;;;;;;2.28;83.15;101826.90;1797869;77;21425;-70
2020/12/18 01:18:34;;;;;;;44.70;24.82;;;;;;;2.19;83.08;101822.14;1778000;80;21978;-70
2020/12/18 01:21:02;;;;;;;42.13;23.95;;;;;;;2.14;83.10;101823.64;1818099;78;21108;-69
2020/12/18 01:23:31;;;;;;;42.20;25.02;;;;;;;2.08;83.15;101827.30;1795663;79;21157;-71
2020/12/18 01:26:02;;;;;;;48.02;25.88;;;;;;;2.10;83.23;101824.48;1794422;78;21171;-69
2020/12/18 01:28:30;;;;;;;46.55;25.85;;;;;;;2.12;83.25;101821.19;1778495;80;21438;-70
2020/12/18 01:30:57;;;;;;;44.85;25.80;;;;;;;2.17;83.27;101817.53;1759056;80;21219;-70
2020/12/18 01:33:27;;;;;;;48.25;27.65;;;;;;;2.19;83.23;101812.92;1780798;80;21146;-70
2020/12/18 01:35:55;;;;;;;51.77;28.00;;;;;;;2.16;83.14;101817.21;1788793;80;21584;-70
2020/12/18 01:38:24;;;;;;;52.30;28.20;;;;;;;2.13;83.16;101817.55;1776077;78;21129;-71
2020/12/18 01:40:52;;;;;;;51.05;28.80;;;;;;;2.12;83.17;101810.64;1775834;79;21341;-70
2020/12/18 01:43:21;;;;;;;50.73;28.00;;;;;;;2.15;83.19;101814.77;1774997;79;21582;-70
2020/12/18 01:45:50;;;;;;;47.88;27.17;;;;;;;2.20;83.16;101815.05;1754722;81;21127;-71
2020/12/18 01:48:19;;;;;;;49.35;28.73;;;;;;;2.24;83.10;101818.52;1779200;78;21176;-70
2020/12/18 01:50:49;;;;;;;50.52;27.07;;;;;;;2.26;83.01;101815.69;1788650;79;21192;-70
2020/12/18 01:53:17;;;;;;;49.35;28.42;;;;;;;2.29;82.97;101814.03;1765129;80;22337;-71
2020/12/18 01:56:05;;;;;;;48.60;27.03;;;;;;;2.33;82.86;101812.19;1787349;78;22832;-71
2020/12/18 01:58:36;;;;;;;46.95;25.88;;;;;;;2.26;82.76;101808.60;1768381;80;21060;-70
2020/12/18 02:01:08;;;;;;;45.95;26.35;;;;;;;2.23;82.67;101810.77;1795956;78;23590;-70
2020/12/18 02:03:38;;;;;;;49.80;27.35;;;;;;;2.22;82.62;101809.95;1793883;78;21184;-69
2020/12/18 02:06:11;;;;;;;49.13;27.07;;;;;;;2.17;82.55;101810.94;1810435;78;21183;-69
2020/12/18 02:08:43;;;;;;;51.00;27.80;;;;;;;2.15;82.54;101806.35;1815835;78;21171;-70
2020/12/18 02:11:29;;;;;;;50.23;27.52;;;;;;;2.16;82.57;101807.17;1784886;78;21130;-69
2020/12/18 02:13:59;;;;;;;46.48;25.60;;;;;;;2.18;82.51;101809.15;1767545;80;21309;-70
2020/12/18 02:16:28;;;;;;;45.40;25.50;;;;;;;2.17;82.43;101815.39;1788192;79;21140;-70
2020/12/18 02:18:58;;;;;;;49.27;27.20;;;;;;;2.11;82.33;101816.42;1799174;79;21171;-70
2020/12/18 02:21:26;;;;;;;48.40;27.30;;;;;;;2.05;82.35;101807.87;1785870;79;21100;-70
2020/12/18 02:23:54;;;;;;;45.03;25.88;;;;;;;2.04;82.40;101815.92;1791608;79;21608;-70
2020/12/18 02:26:23;;;;;;;48.17;26.70;;;;;;;2.02;82.37;101805.57;1781081;79;21357;-70
2020/12/18 02:28:52;;;;;;;45.50;26.35;;;;;;;1.99;82.35;101812.50;1785049;79;21113;-70
2020/12/18 02:31:23;;;;;;;44.75;25.05;;;;;;;1.94;82.32;101811.34;1767030;78;21134;-70
2020/12/18 02:34:01;;;;;;;45.80;25.63;;;;;;;1.96;82.38;101804.11;1798657;78;22767;-70
2020/12/18 02:36:30;;;;;;;46.83;25.80;;;;;;;1.94;82.42;101804.77;1790625;78;21155;-70
2020/12/18 02:39:00;;;;;;;47.30;25.52;;;;;;;1.94;82.40;101805.61;1789483;79;21488;-70
2020/12/18 02:41:29;;;;;;;47.08;26.45;;;;;;;1.93;82.37;101807.89;1800329;79;21175;-70
2020/12/18 02:44:07;;;;;;;44.27;24.73;;;;;;;1.91;82.32;101802.46;1757403;79;22846;-70
2020/12/18 02:46:36;;;;;;;51.13;26.48;;;;;;;1.77;82.32;101804.80;1739470;82;21144;-70
2020/12/18 02:49:04;;;;;;;51.35;26.87;;;;;;;1.70;82.34;101806.47;1748126;80;21257;-69
2020/12/18 02:51:43;;;;;;;51.77;28.77;;;;;;;1.66;82.41;101799.08;1802032;79;21135;-70
2020/12/18 02:54:19;;;;;;;52.78;28.47;;;;;;;1.66;82.55;101802.53;1788406;79;21480;-69
2020/12/18 02:56:57;;;;;;;51.73;28.00;;;;;;;1.75;82.68;101804.67;1762600;79;22717;-70
2020/12/18 02:59:36;;;;;;;53.40;28.47;;;;;;;1.72;82.65;101799.73;1725096;81;21111;-70
2020/12/18 03:02:04;;;;;;;50.75;27.05;;;;;;;1.67;82.66;101804.17;1753897;81;21216;-70
2020/12/18 03:04:32;;;;;;;49.27;24.98;;;;;;;1.67;82.69;101805.98;1740130;81;21120;-70
2020/12/18 03:07:16;;;;;;;47.37;26.57;;;;;;;1.64;82.68;101804.00;1798660;78;22736;-69
2020/12/18 03:09:44;;;;;;;48.60;26.85;;;;;;;1.50;82.76;101805.19;1774437;78;21551;-70
2020/12/18 03:12:12;;;;;;;48.25;26.95;;;;;;;1.43;82.87;101812.11;1790074;80;22241;-69
2020/12/18 03:14:40;;;;;;;53.45;28.35;;;;;;;1.42;83.00;101813.11;1799517;78;21132;-70
2020/12/18 03:17:10;;;;;;;52.05;28.98;;;;;;;1.39;83.06;101811.12;1811066;78;21144;-69
2020/12/18 03:19:51;;;;;;;53.37;27.70;;;;;;;1.43;83.13;101806.84;1804027;77;22734;-69
2020/12/18 03:22:20;;;;;;;52.53;29.37;;;;;;;1.39;83.19;101808.49;1783102;80;21145;-70
2020/12/18 03:24:56;;;;;;;49.73;27.62;;;;;;;1.45;83.32;101800.44;1794850;77;21650;-70
2020/12/18 03:27:37;;;;;;;54.53;28.10;;;;;;;1.57;83.42;101803.03;1798730;78;22769;-69
2020/12/18 03:30:06;;;;;;;45.30;25.70;;;;;;;1.59;83.44;101802.87;1544075;78;10000404;-70
2020/12/18 03:32:35;;;;;;;49.65;26.57;;;;;;;1.60;83.36;101796.11;1790068;78;21568;-70
2020/12/18 03:35:05;;;;;;;47.65;25.08;;;;;;;1.60;83.35;101799.25;1790796;78;21225;-69
2020/12/18 03:37:35;;;;;;;46.15;25.40;;;;;;;1.59;83.29;101799.75;1777444;78;21155;-70
2020/12/18 03:40:05;;;;;;;46.23;26.25;;;;;;;1.53;83.29;101800.91;1761429;78;21605;-68
2020/12/18 03:42:35;;;;;;;48.28;26.23;;;;;;;1.45;83.40;101806.17;1778602;80;21164;-68
2020/12/18 03:45:04;;;;;;;46.50;24.65;;;;;;;1.39;83.48;101800.59;1780749;80;21215;-69
2020/12/18 03:47:51;;;;;;;49.23;26.25;;;;;;;1.35;83.55;101808.97;1770967;79;21220;-70
2020/12/18 03:50:21;;;;;;;48.48;25.55;;;;;;;1.35;83.64;101810.28;1786506;78;21463;-70
2020/12/18 03:52:53;;;;;;;47.58;26.80;;;;;;;1.36;83.69;101808.82;1784027;80;27450;-69
2020/12/18 03:55:21;;;;;;;46.77;26.23;;;;;;;1.39;83.75;101810.30;1785079;79;21104;-70
2020/12/18 03:58:07;;;;;;;49.80;26.70;;;;;;;1.39;83.82;101801.09;1787544;79;21652;-70
2020/12/18 04:00:53;;;;;;;48.87;26.65;;;;;;;1.40;83.90;101809.31;1783221;80;21145;-70
2020/12/18 04:03:22;;;;;;;48.23;27.58;;;;;;;1.42;83.91;101805.21;1789894;78;22417;-68
2020/12/18 04:05:53;;;;;;;46.15;26.70;;;;;;;1.44;83.90;101801.41;1763916;80;21077;-69
2020/12/18 04:08:22;;;;;;;48.85;26.33;;;;;;;1.48;83.90;101800.10;1789737;79;21536;-70
2020/12/18 04:11:13;;;;;;;49.10;26.70;;;;;;;1.55;83.86;101798.94;1800141;77;22676;-68
2020/12/18 04:13:50;;;;;;;46.25;25.88;;;;;;;1.49;83.86;101799.60;1740973;78;21120;-70
2020/12/18 04:16:19;;;;;;;45.75;25.15;;;;;;;1.45;83.84;101800.44;1782574;79;21269;-68
2020/12/18 04:18:49;;;;;;;47.53;25.23;;;;;;;1.38;83.82;101800.28;1788922;79;22224;-69
2020/12/18 04:21:17;;;;;;;47.65;26.35;;;;;;;1.34;83.84;101796.80;1793274;79;21512;-69
2020/12/18 04:23:50;;;;;;;47.98;25.27;;;;;;;1.26;83.86;101800.77;1773452;79;21143;-69
2020/12/18 04:26:19;;;;;;;44.70;26.05;;;;;;;1.24;83.95;101795.66;1838389;77;21109;-69
2020/12/18 04:28:48;;;;;;;42.38;24.02;;;;;;;1.24;84.04;101797.47;1782393;79;22273;-69
2020/12/18 04:31:16;;;;;;;38.83;21.15;;;;;;;1.19;84.06;101803.73;1764360;80;21165;-69
2020/12/18 04:33:44;;;;;;;40.85;23.15;;;;;;;1.13;84.09;101797.31;1777094;80;21488;-69
2020/12/18 04:36:14;;;;;;;40.10;24.00;;;;;;;1.06;84.13;101798.46;1824746;77;21153;-69
2020/12/18 04:38:43;;;;;;;37.20;21.90;;;;;;;1.05;84.24;101803.87;1823558;76;21206;-69
2020/12/18 04:41:26;;;;;;;38.57;22.03;;;;;;;1.09;84.33;101798.14;1766386;79;22943;-69
2020/12/18 04:43:55;;;;;;;41.33;22.95;;;;;;;1.05;84.40;101807.81;1765306;79;21887;-69
2020/12/18 04:46:25;;;;;;;40.80;23.12;;;;;;;1.06;84.49;101803.72;1737700;81;21298;-69
2020/12/18 04:48:53;;;;;;;36.23;21.68;;;;;;;1.08;84.55;101799.09;1743050;81;21599;-70
2020/12/18 04:51:26;;;;;;;34.95;20.35;;;;;;;1.11;84.58;101798.77;1744714;81;21161;-69
2020/12/18 04:53:59;;;;;;;38.67;21.57;;;;;;;1.17;84.59;101805.20;1748587;79;21125;-69
2020/12/18 04:56:28;;;;;;;36.42;21.40;;;;;;;1.20;84.61;101803.56;1742365;79;21119;-69
2020/12/18 04:59:12;;;;;;;34.23;20.17;;;;;;;1.28;84.65;101803.55;1755098;79;22816;-69
2020/12/18 05:01:47;;;;;;;35.13;20.55;;;;;;;1.23;84.62;101804.55;1674420;82;21145;-69
2020/12/18 05:04:17;;;;;;;37.25;22.10;;;;;;;1.22;84.63;101812.13;1735663;82;21231;-70
2020/12/18 05:06:48;;;;;;;36.58;20.32;;;;;;;1.23;84.63;101815.57;1727719;81;21192;-69
2020/12/18 05:09:18;;;;;;;36.13;20.77;;;;;;;1.28;84.69;101815.89;1733611;82;21178;-70
2020/12/18 05:11:48;;;;;;;36.55;21.15;;;;;;;1.33;84.69;101818.86;1742869;80;21128;-70
2020/12/18 05:14:16;;;;;;;38.08;21.42;;;;;;;1.36;84.67;101815.90;1748387;81;21622;-69
2020/12/18 05:16:47;;;;;;;41.83;22.13;;;;;;;1.41;84.69;101814.89;1768293;80;21300;-70
2020/12/18 05:19:17;;;;;;;36.70;21.75;;;;;;;1.46;84.67;101813.09;1754338;79;21159;-70
2020/12/18 05:22:04;;;;;;;35.43;20.50;;;;;;;1.56;84.61;101818.52;1799711;78;22820;-68
2020/12/18 05:24:54;;;;;;;35.43;20.90;;;;;;;1.60;84.59;101822.45;1804625;79;21300;-71
2020/12/18 05:27:23;;;;;;;37.48;20.97;;;;;;;1.66;84.49;101825.42;1812185;79;21444;-69
2020/12/18 05:29:52;;;;;;;37.55;21.75;;;;;;;1.66;84.35;101825.42;1768880;79;21211;-70
2020/12/18 05:32:36;;;;;;;36.50;20.50;;;;;;;1.68;84.27;101830.86;1769959;79;23316;-69
2020/12/18 05:35:12;;;;;;;33.40;18.92;;;;;;;1.60;84.23;101827.72;1716040;81;22526;-69
2020/12/18 05:37:45;;;;;;;35.23;20.00;;;;;;;1.66;84.21;101832.00;1716333;81;21822;-69
2020/12/18 05:40:22;;;;;;;37.13;20.70;;;;;;;1.76;84.17;101831.33;1791475;77;23256;-70
2020/12/18 05:43:07;;;;;;;33.50;19.47;;;;;;;1.73;84.04;101831.66;1808690;78;22800;-68
2020/12/18 05:45:37;;;;;;;30.80;17.62;;;;;;;1.67;83.97;101829.69;1805355;77;21167;-69
2020/12/18 05:48:17;;;;;;;37.20;21.17;;;;;;;1.69;83.95;101830.36;1802782;78;22728;-69
2020/12/18 05:50:47;;;;;;;34.25;19.30;;;;;;;1.64;83.91;101836.92;1780593;80;21172;-69
2020/12/18 05:53:15;;;;;;;33.80;19.02;;;;;;;1.64;83.82;101828.20;1777123;80;21271;-70
2020/12/18 05:55:45;;;;;;;35.83;20.62;;;;;;;1.63;83.79;101831.34;1769786;78;21119;-69
2020/12/18 05:58:27;;;;;;;36.53;19.60;;;;;;;1.69;83.84;101832.98;1766779;79;22777;-70
2020/12/18 06:01:01;;;;;;;37.53;21.50;;;;;;;1.68;83.82;101833.48;1748919;80;21131;-70
2020/12/18 06:03:47;;;;;;;37.90;20.60;;;;;;;1.70;83.80;101829.36;1744455;81;21602;-70
2020/12/18 06:06:15;;;;;;;35.73;20.32;;;;;;;1.73;83.74;101829.84;1768746;79;21754;-69
2020/12/18 06:08:44;;;;;;;35.65;20.15;;;;;;;1.78;83.72;101831.99;1740164;81;21180;-70
2020/12/18 06:11:14;;;;;;;37.85;21.12;;;;;;;1.82;83.64;101831.98;1736515;81;21069;-70
2020/12/18 06:13:45;;;;;;;30.92;18.50;;;;;;;1.80;83.52;101824.72;1774246;79;21244;-70
2020/12/18 06:16:30;;;;;;;34.07;19.60;;;;;;;1.86;83.50;101829.33;1797062;77;22704;-70
2020/12/18 06:19:10;;;;;;;34.20;19.15;;;;;;;1.80;83.36;101833.94;1783658;78;21231;-69
2020/12/18 06:21:55;;;;;;;37.43;19.37;;;;;;;1.86;83.30;101834.59;1760658;79;22811;-69
2020/12/18 06:24:26;;;;;;;34.15;19.52;;;;;;;1.79;83.27;101837.08;1741846;82;21842;-69
2020/12/18 06:27:18;;;;;;;35.20;19.97;;;;;;;1.84;83.27;101837.41;1800791;77;22765;-70
2020/12/18 06:29:49;;;;;;;34.00;19.20;;;;;;;1.81;83.28;101843.02;1783347;78;21078;-69
2020/12/18 06:32:35;;;;;;;33.02;18.77;;;;;;;1.85;83.26;101844.31;1786709;79;21354;-69
2020/12/18 06:35:38;;;;;;;35.13;19.87;;;;;;;1.89;83.19;101846.12;1758641;79;21167;-70
2020/12/18 06:38:23;;;;;;;31.95;17.87;;;;;;;1.90;83.17;101848.25;1798532;77;21105;-69
2020/12/18 06:41:24;;;;;;;32.27;19.00;;;;;;;1.93;83.12;101851.38;1786718;79;22766;-70
2020/12/18 06:44:02;;;;;;;31.55;18.48;;;;;;;1.86;83.08;101853.03;1705796;82;21216;-70
2020/12/18 06:46:32;;;;;;;30.40;17.20;;;;;;;1.86;83.06;101852.53;1776337;80;21436;-69
2020/12/18 06:49:21;;;;;;;31.42;17.52;;;;;;;1.86;83.05;101850.41;1754986;80;21203;-70
2020/12/18 06:52:03;;;;;;;27.60;16.23;;;;;;;1.87;83.02;101861.26;1768720;80;21187;-69
2020/12/18 06:54:39;;;;;;;28.73;17.32;;;;;;;1.88;83.01;101861.11;1781465;79;21203;-69
2020/12/18 06:57:22;;;;;;;26.80;17.15;;;;;;;1.92;83.03;101864.73;1766194;79;21192;-70
2020/12/18 06:59:50;;;;;;;26.33;15.80;;;;;;;1.89;82.97;101864.56;1789877;79;22104;-70
2020/12/18 07:02:36;;;;;;;27.62;17.65;;;;;;;1.87;82.95;101860.77;1774677;80;21232;-70
2020/12/18 07:05:04;;;;;;;26.50;16.80;;;;;;;1.91;82.95;101870.97;1751424;80;21509;-69
2020/12/18 07:07:41;;;;;;;27.70;16.45;;;;;;;1.95;82.94;101866.53;1788648;80;21244;-70
2020/12/18 07:10:09;;;;;;;29.35;17.30;;;;;;;2.00;82.94;101865.52;1756948;80;21520;-69
2020/12/18 07:12:37;;;;;;;28.40;17.57;;;;;;;2.01;82.85;101857.95;1726347;80;21669;-68
2020/12/18 07:15:06;;;;;;;28.40;17.37;;;;;;;2.04;82.80;101860.73;1784055;78;21129;-70
2020/12/18 07:17:34;;;;;;;30.15;16.95;;;;;;;2.06;82.79;101862.20;1775480;80;21176;-70
2020/12/18 07:20:02;;;;;;;28.73;16.37;;;;;;;2.08;82.75;101860.24;1777039;80;21195;-70
2020/12/18 07:22:30;;;;;;;29.25;18.17;;;;;;;2.13;82.72;101856.27;1783302;80;21190;-69
2020/12/18 07:25:01;;;;;;;29.87;18.15;;;;;;;2.18;82.70;101865.32;1779553;79;21262;-70
2020/12/18 07:27:29;;;;;;;33.40;19.50;;;;;;;2.22;82.60;101857.39;1782019;80;21101;-71
2020/12/18 07:29:57;;;;;;;32.70;18.77;;;;;;;2.23;82.49;101856.89;1779030;80;21129;-69
2020/12/18 07:32:25;;;;;;;29.98;17.65;;;;;;;2.22;82.42;101859.21;1783503;80;21246;-70
2020/12/18 07:35:07;;;;;;;29.18;17.77;;;;;;;2.21;82.37;101865.48;1795117;79;21825;-70
2020/12/18 07:37:36;;;;;;;29.92;18.17;;;;;;;2.19;82.33;101858.23;1781780;80;21373;-69
2020/12/18 07:40:05;;;;;;;32.63;19.25;;;;;;;2.23;82.38;101862.16;1785772;79;21698;-70
2020/12/18 07:42:33;;;;;;;26.65;16.57;;;;;;;2.26;82.37;101852.60;1779701;80;21585;-69
2020/12/18 07:45:09;;;;;;;28.73;18.02;;;;;;;2.23;82.24;101856.89;1778950;78;21153;-70
2020/12/18 07:47:40;;;;;;;30.10;17.90;;;;;;;2.22;82.21;101863.17;1782094;80;21105;-71
2020/12/18 07:50:08;;;;;;;26.75;16.50;;;;;;;2.25;82.20;101864.15;1767921;80;22085;-70
2020/12/18 07:52:36;;;;;;;29.85;18.30;;;;;;;2.29;82.14;101866.77;1789058;80;21136;-68
2020/12/18 07:55:04;;;;;;;28.98;17.25;;;;;;;2.27;82.06;101860.83;1788046;78;21283;-69
2020/12/18 07:57:33;;;;;;;30.77;18.05;;;;;;;2.27;82.01;101872.69;1781616;80;21538;-70
2020/12/18 08:00:09;;;;;;;28.80;16.52;;;;;;;2.26;81.95;101865.78;1766515;78;21673;-71
2020/12/18 08:02:40;;;;;;;26.62;15.78;;;;;;;2.25;81.89;101864.15;1788302;80;21200;-70
2020/12/18 08:05:08;;;;;;;24.30;15.53;;;;;;;2.20;81.81;101866.45;1786574;78;21182;-69
2020/12/18 08:07:36;;;;;;;31.00;18.98;;;;;;;2.20;81.80;101858.55;1784396;80;21134;-70
2020/12/18 08:10:04;;;;;;;28.45;18.20;;;;;;;2.21;81.79;101859.71;1781606;80;21215;-70
2020/12/18 08:12:32;;;;;;;29.15;16.73;;;;;;;2.24;81.78;101863.83;1780405;80;21648;-70
2020/12/18 08:15:12;;;;;;;28.00;17.62;;;;;;;2.24;81.76;101858.06;1787786;80;21205;-70
2020/12/18 08:17:41;;;;;;;29.82;17.07;;;;;;;2.27;81.70;101862.14;1785843;80;21225;-71
2020/12/18 08:20:11;;;;;;;28.12;16.87;;;;;;;2.27;81.67;101866.09;1787991;79;21523;-72
2020/12/18 08:22:43;;;;;;;30.95;18.98;;;;;;;2.30;81.63;101864.44;1788115;80;21572;-70
2020/12/18 08:25:13;;;;;;;32.78;19.92;;;;;;;2.32;81.65;101867.24;1808262;79;21636;-70
2020/12/18 08:27:50;;;;;;;40.30;22.52;;;;;;;2.34;81.62;101864.45;1784679;78;21307;-69
2020/12/18 08:30:19;;;;;;;42.03;23.62;;;;;;;2.39;81.58;101866.56;1741517;81;21200;-70
2020/12/18 08:32:54;;;;;;;31.33;18.15;;;;;;;2.39;81.54;101867.38;1793952;79;21195;-71
2020/12/18 08:35:23;;;;;;;29.12;17.55;;;;;;;2.42;81.47;101867.05;1772312;79;21675;-70
2020/12/18 08:37:51;;;;;;;30.85;18.20;;;;;;;2.43;81.36;101865.22;1769545;80;21160;-70
2020/12/18 08:40:24;;;;;;;32.25;19.05;;;;;;;2.42;81.26;101862.27;1757392;80;22180;-70
2020/12/18 08:42:59;;;;;;;;;;;;;;;2.41;81.27;101860.64;1783463;80;21212;-70
2020/12/18 08:45:27;;;;;;;29.12;17.60;;;;;;;2.40;81.18;101858.47;1777497;78;20289;-71
2020/12/18 08:47:55;;;;;;;30.12;16.93;;;;;;;2.39;81.18;101858.16;1795470;79;21161;-70
2020/12/18 08:50:23;;;;;;;25.05;15.43;;;;;;;2.38;81.11;101859.16;1774676;78;21136;-71
2020/12/18 08:52:51;;;;;;;29.10;17.40;;;;;;;2.37;81.08;101850.94;1763122;81;21556;-70
2020/12/18 08:55:21;;;;;;;29.67;17.62;;;;;;;2.38;81.08;101851.25;1779131;79;21215;-70
2020/12/18 08:57:50;;;;;;;29.23;17.90;;;;;;;2.39;81.09;101847.61;1762540;81;21169;-71
2020/12/18 09:00:21;;;;;;;23.87;14.40;;;;;;;2.43;81.03;101842.31;1784725;79;21208;-70
2020/12/18 09:02:56;;;;;;;20.35;12.28;;;;;;;2.43;80.93;101838.86;1798619;79;21180;-69
2020/12/18 09:05:31;;;;;;;26.50;15.20;;;;;;;2.36;80.81;101838.72;1776465;80;21384;-69
2020/12/18 09:08:03;;;;;;;27.02;15.23;;;;;;;2.38;80.88;101832.79;1754924;81;21714;-70
2020/12/18 09:10:43;;;;;;;28.40;16.35;;;;;;;2.42;80.91;101837.22;1769930;80;22243;-71
2020/12/18 09:13:24;;;;;;;25.92;15.05;;;;;;;2.43;80.92;101829.13;1771479;80;21128;-70
2020/12/18 09:16:08;;;;;;;23.77;14.20;;;;;;;2.46;80.86;101830.60;1768903;80;21193;-69
2020/12/18 09:18:37;;;;;;;26.50;15.55;;;;;;;2.50;80.85;101828.78;1766495;79;22260;-71
2020/12/18 09:21:16;;;;;;;25.75;15.40;;;;;;;2.54;80.79;101824.80;1766798;80;21192;-70
2020/12/18 09:23:46;;;;;;;24.65;14.33;;;;;;;2.63;80.75;101816.83;1769574;80;21155;-70
2020/12/18 09:26:26;;;;;;;24.37;14.50;;;;;;;2.72;80.73;101815.30;1798814;78;21197;-70
2020/12/18 09:28:54;;;;;;;24.47;14.33;;;;;;;2.81;80.63;101816.08;1758766;80;21169;-70
2020/12/18 09:31:25;;;;;;;23.45;13.03;;;;;;;2.88;80.47;101815.70;1763063;80;21298;-70
2020/12/18 09:33:53;;;;;;;21.57;12.18;;;;;;;2.89;80.25;101813.37;1765620;80;21182;-70
2020/12/18 09:36:24;;;;;;;20.23;12.50;;;;;;;2.78;80.05;101808.51;1767519;80;21663;-69
2020/12/18 09:38:52;;;;;;;20.92;11.65;;;;;;;2.73;80.04;101809.52;1765067;81;21200;-70
2020/12/18 09:41:24;;;;;;;20.12;12.30;;;;;;;2.70;79.97;101809.39;1787705;79;21152;-69
2020/12/18 09:43:52;;;;;;;23.75;13.38;;;;;;;2.65;79.81;101808.26;1763950;81;21450;-71
2020/12/18 09:46:23;;;;;;;20.95;12.07;;;;;;;2.64;79.83;101810.59;1796866;79;21492;-70
2020/12/18 09:48:50;;;;;;;19.07;11.20;;;;;;;2.65;79.80;101809.58;1792932;79;22244;-70
2020/12/18 09:51:19;;;;;;;21.05;12.47;;;;;;;2.66;79.64;101810.71;1792899;78;21191;-69
2020/12/18 09:53:48;;;;;;;19.73;11.85;;;;;;;2.67;79.49;101803.64;1783952;80;21128;-71
2020/12/18 09:56:17;;;;;;;19.02;11.55;;;;;;;2.66;79.44;101808.07;1788489;80;22181;-70
2020/12/18 09:58:45;;;;;;;20.12;11.83;;;;;;;2.70;79.38;101804.11;1786410;78;21188;-70
2020/12/18 10:01:17;;;;;;;18.55;11.40;;;;;;;2.70;79.23;101803.27;1787411;78;21183;-71
2020/12/18 10:03:47;;;;;;;18.52;11.33;;;;;;;2.74;79.27;101801.95;1786710;80;21204;-71
2020/12/18 10:06:16;;;;;;;16.73;10.10;;;;;;;2.81;79.31;101798.42;1788364;80;21115;-71
2020/12/18 10:08:46;;;;;;;16.67;10.40;;;;;;;2.90;79.21;101801.84;1780914;78;21239;-71
2020/12/18 10:11:17;;;;;;;17.37;9.90;;;;;;;2.96;79.04;101800.30;1779663;80;21259;-70
2020/12/18 10:13:44;;;;;;;16.85;9.90;;;;;;;2.97;78.73;101801.45;1787650;79;21157;-70
2020/12/18 10:16:11;;;;;;;17.50;10.30;;;;;;;3.01;78.64;101794.81;1787160;79;21105;-71
2020/12/18 10:18:39;;;;;;;17.62;10.55;;;;;;;3.06;78.57;101791.67;1791813;79;21632;-70
2020/12/18 10:21:07;;;;;;;17.90;10.82;;;;;;;3.12;78.49;101781.70;1782741;79;21662;-70
2020/12/18 10:23:35;;;;;;;17.42;11.03;;;;;;;3.22;78.44;101786.73;1753977;79;21661;-70
2020/12/18 10:26:03;;;;;;;20.17;12.15;;;;;;;3.27;78.25;101796.27;1793879;79;21157;-71
2020/12/18 10:28:31;;;;;;;20.55;11.93;;;;;;;3.24;77.99;101797.95;1783318;78;21176;-70
2020/12/18 10:30:59;;;;;;;19.55;12.30;;;;;;;3.23;77.86;101795.00;1797261;78;21168;-71
2020/12/18 10:33:27;;;;;;;18.07;11.43;;;;;;;3.23;77.90;101788.39;1777250;80;21198;-69
2020/12/18 10:35:56;;;;;;;18.30;11.50;;;;;;;3.24;77.84;101785.56;1795716;79;21180;-71
2020/12/18 10:38:24;;;;;;;20.00;11.83;;;;;;;3.25;77.80;101789.02;1786159;79;21179;-70
2020/12/18 10:40:52;;;;;;;17.95;10.30;;;;;;;3.25;77.80;101781.09;1801655;79;21124;-71
2020/12/18 10:43:22;;;;;;;16.35;9.60;;;;;;;3.25;77.66;101778.45;1796885;79;21121;-71
2020/12/18 10:45:50;;;;;;;12.18;7.58;;;;;;;3.24;77.54;101771.04;1792076;78;21195;-71
2020/12/18 10:48:19;;;;;;;11.63;7.22;;;;;;;3.26;77.37;101776.16;1794113;78;21175;-73
2020/12/18 10:50:47;;;;;;;12.75;8.00;;;;;;;3.27;77.18;101772.51;1792320;79;21501;-71
2020/12/18 10:53:15;;;;;;;9.90;6.58;;;;;;;3.30;77.03;101774.80;1781771;78;21155;-71
2020/12/18 10:55:43;;;;;;;11.43;7.35;;;;;;;3.31;76.79;101773.78;1775766;80;21191;-70
2020/12/18 10:58:11;;;;;;;10.50;6.62;;;;;;;3.32;76.65;101773.28;1761861;79;21215;-70
2020/12/18 11:00:40;;;;;;;11.83;7.08;;;;;;;3.28;76.30;101763.08;1762019;80;21173;-71
2020/12/18 11:03:08;;;;;;;12.05;7.12;;;;;;;3.25;76.22;101766.07;1767047;79;21176;-77
2020/12/18 11:05:36;;;;;;;9.73;6.30;;;;;;;3.23;76.18;101761.48;1777119;80;21247;-70
2020/12/18 11:08:05;;;;;;;11.53;6.65;;;;;;;3.23;75.91;101766.77;1759050;79;21180;-70
2020/12/18 11:10:33;;;;;;;10.40;6.42;;;;;;;3.17;75.88;101770.62;1786142;78;21401;-71
2020/12/18 11:13:02;;;;;;;12.10;7.35;;;;;;;3.08;75.54;101764.58;1788554;80;21196;-71
2020/12/18 11:15:30;;;;;;;10.28;6.67;;;;;;;2.91;75.62;101761.25;1793322;79;21163;-70
2020/12/18 11:17:59;;;;;;;10.88;7.15;;;;;;;2.86;75.92;101753.03;1787013;80;21143;-70
2020/12/18 11:20:27;;;;;;;10.85;7.08;;;;;;;2.89;76.03;101760.59;1762690;80;21144;-73
2020/12/18 11:22:55;;;;;;;11.73;7.78;;;;;;;2.90;76.03;101763.58;1785272;78;21656;-71
2020/12/18 11:25:23;;;;;;;12.25;7.00;;;;;;;2.88;76.05;101758.14;1778558;78;21152;-70
2020/12/18 11:27:51;;;;;;;13.22;8.78;;;;;;;2.90;76.12;101764.89;1784697;79;21176;-70
2020/12/18 11:30:19;;;;;;;13.45;8.95;;;;;;;2.90;76.20;101759.62;1787250;79;21180;-70
2020/12/18 11:32:47;;;;;;;12.25;8.63;;;;;;;2.95;76.30;101752.48;1788520;79;21599;-70
2020/12/18 11:35:16;;;;;;;12.07;8.75;;;;;;;2.99;76.19;101764.31;1784443;79;21201;-70
2020/12/18 11:37:44;;;;;;;14.13;9.40;;;;;;;2.96;76.07;101756.75;1785373;79;21472;-70
2020/12/18 11:40:13;;;;;;;12.30;8.55;;;;;;;2.97;76.13;101757.91;1774044;80;21185;-70